広州 の空港の天気 - METARとTAF

広州白雲国際空港 ( ZGGG / CAN ) - 中国 広東省広州市
飛行場実況気象(Metar)
観測時間05/27 08:30 CST (05/27 00:30 UTC)
風向・風速南東 2m/s
視程10km以上
天気現象
少しの雲 雲底高度 400m
全天の8割程度の雲 雲底高度 1010m
気温30℃
湿度79%
気圧1004hPa
METARZGGG 270030Z 14002MPS 110V170 9999 FEW013 BKN033 30/26 Q1004 NOSIG
過去の天気等 Google飛行場航空写真 Wunderground天気予報

過去48時間のMETAR

飛行場予報(TAF)
発表時間: 5/27 05:05 CST (5/26 21:05 UTC)
予報対象時間: 27日8時 CST ~ 28日8時 CST
風向・風速南東 3m/s
視程8000m
全天の8割程度の雲 雲底高度 1010m
27日12時 CST ~ 27日18時 CST に一時的に
視程4000m
天気現象雷雨
全天の4割程度の雲 雲底高度 340m
全天の4割程度の積乱雲 雲底高度 790m
全天の8割程度の雲 雲底高度 910m
TAF ZGGG 262105Z 2700/2724 13003MPS 8000 BKN033 TX32/2707Z TN26/2722Z
TEMPO 2704/2710 4000 TSRA SCT011 SCT026CB BKN030